Terminal Aerodrome Forecast
Issued by NWS

Home | Current Version | Previous Version | Text Only | Print | Product List | Glossary On
Versions: 1 2 3 4 5 6 7 8 9 10 11 12 13 14 15 16 17 18 19 20 21 22
629
FTUS41 KILN 230540
TAFLUK
TAF
KLUK 230540Z 2306/2406 03008KT P6SM VCSH OVC100
     FM231000 01012KT 5SM -SHRA BR OVC028
     FM231200 36011KT 5SM BR VCSH OVC010
     FM231800 35011KT P6SM OVC015
     FM232300 33009KT P6SM OVC009=

USA.gov is the U.S. government's official web portal to all federal, state and local government web resources and services.